sensor_id;sensor_type;location;lat;lon;timestamp;P1;durP1;ratioP1;P2;durP2;ratioP2
68126;SDS011;54931;52.098;21.006;2022-12-18T00:01:38;51.90;;;19.20;;
68126;SDS011;54931;52.098;21.006;2022-12-18T00:04:10;50.70;;;18.10;;
68126;SDS011;54931;52.098;21.006;2022-12-18T00:06:49;48.30;;;18.60;;
68126;SDS011;54931;52.098;21.006;2022-12-18T00:09:17;50.00;;;19.20;;
68126;SDS011;54931;52.098;21.006;2022-12-18T00:11:45;41.80;;;14.50;;
68126;SDS011;54931;52.098;21.006;2022-12-18T00:14:13;50.70;;;18.90;;
68126;SDS011;54931;52.098;21.006;2022-12-18T00:16:43;48.10;;;15.90;;
68126;SDS011;54931;52.098;21.006;2022-12-18T00:19:13;47.10;;;15.90;;
68126;SDS011;54931;52.098;21.006;2022-12-18T00:21:42;46.90;;;16.40;;
68126;SDS011;54931;52.098;21.006;2022-12-18T00:24:11;46.50;;;17.00;;
68126;SDS011;54931;52.098;21.006;2022-12-18T00:26:39;48.30;;;16.40;;
68126;SDS011;54931;52.098;21.006;2022-12-18T00:29:11;49.70;;;17.00;;
68126;SDS011;54931;52.098;21.006;2022-12-18T00:31:41;51.20;;;18.60;;
68126;SDS011;54931;52.098;21.006;2022-12-18T00:34:11;43.00;;;14.90;;
68126;SDS011;54931;52.098;21.006;2022-12-18T00:36:40;48.10;;;16.00;;
68126;SDS011;54931;52.098;21.006;2022-12-18T00:39:09;49.70;;;16.20;;
68126;SDS011;54931;52.098;21.006;2022-12-18T00:41:38;46.10;;;16.70;;
68126;SDS011;54931;52.098;21.006;2022-12-18T00:44:24;44.00;;;16.80;;
68126;SDS011;54931;52.098;21.006;2022-12-18T00:46:52;47.60;;;17.90;;
68126;SDS011;54931;52.098;21.006;2022-12-18T00:49:20;47.40;;;16.90;;
68126;SDS011;54931;52.098;21.006;2022-12-18T00:51:48;54.50;;;18.20;;
68126;SDS011;54931;52.098;21.006;2022-12-18T00:54:17;48.00;;;17.30;;
68126;SDS011;54931;52.098;21.006;2022-12-18T00:56:44;52.00;;;17.90;;
68126;SDS011;54931;52.098;21.006;2022-12-18T00:59:12;45.50;;;16.80;;
68126;SDS011;54931;52.098;21.006;2022-12-18T01:01:40;48.80;;;17.00;;
68126;SDS011;54931;52.098;21.006;2022-12-18T01:04:08;44.80;;;17.30;;
68126;SDS011;54931;52.098;21.006;2022-12-18T01:06:35;44.40;;;15.30;;
68126;SDS011;54931;52.098;21.006;2022-12-18T01:09:03;42.40;;;16.30;;
68126;SDS011;54931;52.098;21.006;2022-12-18T01:11:31;53.20;;;16.70;;
68126;SDS011;54931;52.098;21.006;2022-12-18T01:13:59;47.90;;;16.20;;
68126;SDS011;54931;52.098;21.006;2022-12-18T01:16:26;45.80;;;15.10;;
68126;SDS011;54931;52.098;21.006;2022-12-18T01:18:54;47.90;;;15.90;;
68126;SDS011;54931;52.098;21.006;2022-12-18T01:21:23;52.70;;;18.10;;
68126;SDS011;54931;52.098;21.006;2022-12-18T01:23:52;48.20;;;16.30;;
68126;SDS011;54931;52.098;21.006;2022-12-18T01:26:22;55.10;;;19.10;;
68126;SDS011;54931;52.098;21.006;2022-12-18T01:28:50;48.40;;;17.40;;
68126;SDS011;54931;52.098;21.006;2022-12-18T01:31:23;47.20;;;16.20;;
68126;SDS011;54931;52.098;21.006;2022-12-18T01:33:54;41.60;;;15.30;;
68126;SDS011;54931;52.098;21.006;2022-12-18T01:36:28;46.00;;;15.70;;
68126;SDS011;54931;52.098;21.006;2022-12-18T01:39:06;44.10;;;15.10;;
68126;SDS011;54931;52.098;21.006;2022-12-18T01:41:38;35.70;;;13.30;;
68126;SDS011;54931;52.098;21.006;2022-12-18T01:45:01;45.90;;;16.40;;
68126;SDS011;54931;52.098;21.006;2022-12-18T01:47:57;47.30;;;16.60;;
68126;SDS011;54931;52.098;21.006;2022-12-18T01:50:42;52.60;;;17.80;;
68126;SDS011;54931;52.098;21.006;2022-12-18T01:53:13;46.00;;;14.50;;
68126;SDS011;54931;52.098;21.006;2022-12-18T01:55:46;34.40;;;12.50;;
68126;SDS011;54931;52.098;21.006;2022-12-18T01:58:24;41.20;;;14.00;;
68126;SDS011;54931;52.098;21.006;2022-12-18T02:01:15;44.80;;;14.50;;
68126;SDS011;54931;52.098;21.006;2022-12-18T02:03:44;43.10;;;14.00;;
68126;SDS011;54931;52.098;21.006;2022-12-18T02:06:16;41.90;;;14.90;;
68126;SDS011;54931;52.098;21.006;2022-12-18T02:12:03;45.10;;;17.70;;
68126;SDS011;54931;52.098;21.006;2022-12-18T02:14:45;43.50;;;14.60;;
68126;SDS011;54931;52.098;21.006;2022-12-18T02:17:48;47.40;;;15.20;;
68126;SDS011;54931;52.098;21.006;2022-12-18T02:20:36;46.50;;;16.00;;
68126;SDS011;54931;52.098;21.006;2022-12-18T02:26:20;44.60;;;15.70;;
68126;SDS011;54931;52.098;21.006;2022-12-18T02:29:03;47.40;;;16.90;;
68126;SDS011;54931;52.098;21.006;2022-12-18T02:31:42;43.60;;;14.60;;
68126;SDS011;54931;52.098;21.006;2022-12-18T02:34:13;48.00;;;15.70;;
68126;SDS011;54931;52.098;21.006;2022-12-18T02:36:45;41.30;;;13.90;;
68126;SDS011;54931;52.098;21.006;2022-12-18T02:39:16;45.30;;;14.10;;
68126;SDS011;54931;52.098;21.006;2022-12-18T02:41:47;43.70;;;15.90;;
68126;SDS011;54931;52.098;21.006;2022-12-18T02:44:15;42.10;;;13.90;;
68126;SDS011;54931;52.098;21.006;2022-12-18T02:46:46;42.50;;;14.20;;
68126;SDS011;54931;52.098;21.006;2022-12-18T02:56:15;43.20;;;14.00;;
68126;SDS011;54931;52.098;21.006;2022-12-18T02:59:02;49.60;;;15.00;;
68126;SDS011;54931;52.098;21.006;2022-12-18T03:01:58;44.40;;;15.00;;
68126;SDS011;54931;52.098;21.006;2022-12-18T03:04:47;42.10;;;14.60;;
68126;SDS011;54931;52.098;21.006;2022-12-18T03:07:39;48.50;;;15.20;;
68126;SDS011;54931;52.098;21.006;2022-12-18T03:10:41;46.60;;;14.80;;
68126;SDS011;54931;52.098;21.006;2022-12-18T03:13:26;42.10;;;14.80;;
68126;SDS011;54931;52.098;21.006;2022-12-18T03:15:59;42.10;;;14.40;;
68126;SDS011;54931;52.098;21.006;2022-12-18T03:18:33;42.60;;;13.70;;
68126;SDS011;54931;52.098;21.006;2022-12-18T03:21:05;43.70;;;14.90;;
68126;SDS011;54931;52.098;21.006;2022-12-18T03:23:40;47.60;;;15.80;;
68126;SDS011;54931;52.098;21.006;2022-12-18T03:26:17;44.10;;;16.70;;
68126;SDS011;54931;52.098;21.006;2022-12-18T03:28:58;44.50;;;15.30;;
68126;SDS011;54931;52.098;21.006;2022-12-18T03:31:30;48.20;;;15.70;;
68126;SDS011;54931;52.098;21.006;2022-12-18T03:34:02;46.40;;;15.80;;
68126;SDS011;54931;52.098;21.006;2022-12-18T03:36:32;45.50;;;15.20;;
68126;SDS011;54931;52.098;21.006;2022-12-18T03:39:00;46.50;;;15.70;;
68126;SDS011;54931;52.098;21.006;2022-12-18T03:41:34;40.40;;;14.60;;
68126;SDS011;54931;52.098;21.006;2022-12-18T03:48:06;48.10;;;14.80;;
68126;SDS011;54931;52.098;21.006;2022-12-18T03:50:45;46.00;;;13.90;;
68126;SDS011;54931;52.098;21.006;2022-12-18T03:56:00;45.60;;;15.90;;
68126;SDS011;54931;52.098;21.006;2022-12-18T03:58:32;47.10;;;14.40;;
68126;SDS011;54931;52.098;21.006;2022-12-18T04:01:05;44.30;;;14.50;;
68126;SDS011;54931;52.098;21.006;2022-12-18T04:03:35;50.20;;;16.70;;
68126;SDS011;54931;52.098;21.006;2022-12-18T04:06:05;46.80;;;15.40;;
68126;SDS011;54931;52.098;21.006;2022-12-18T04:08:34;43.70;;;14.90;;
68126;SDS011;54931;52.098;21.006;2022-12-18T04:11:02;50.30;;;16.40;;
68126;SDS011;54931;52.098;21.006;2022-12-18T04:13:38;49.50;;;14.30;;
68126;SDS011;54931;52.098;21.006;2022-12-18T04:16:06;47.90;;;17.50;;
68126;SDS011;54931;52.098;21.006;2022-12-18T04:18:33;47.20;;;17.10;;
68126;SDS011;54931;52.098;21.006;2022-12-18T04:21:02;42.70;;;13.30;;
68126;SDS011;54931;52.098;21.006;2022-12-18T04:23:30;49.90;;;16.10;;
68126;SDS011;54931;52.098;21.006;2022-12-18T04:25:58;47.00;;;14.40;;
68126;SDS011;54931;52.098;21.006;2022-12-18T04:28:25;47.40;;;15.30;;
68126;SDS011;54931;52.098;21.006;2022-12-18T04:30:53;41.40;;;13.30;;
68126;SDS011;54931;52.098;21.006;2022-12-18T04:33:21;41.70;;;14.90;;
68126;SDS011;54931;52.098;21.006;2022-12-18T04:35:48;39.20;;;14.30;;
68126;SDS011;54931;52.098;21.006;2022-12-18T04:38:16;47.80;;;15.50;;
68126;SDS011;54931;52.098;21.006;2022-12-18T04:40:43;43.80;;;15.70;;
68126;SDS011;54931;52.098;21.006;2022-12-18T04:43:11;41.90;;;13.90;;
68126;SDS011;54931;52.098;21.006;2022-12-18T04:45:39;43.90;;;13.30;;
68126;SDS011;54931;52.098;21.006;2022-12-18T04:48:08;40.10;;;13.70;;
68126;SDS011;54931;52.098;21.006;2022-12-18T04:50:36;42.00;;;13.60;;
68126;SDS011;54931;52.098;21.006;2022-12-18T04:53:03;47.50;;;15.00;;
68126;SDS011;54931;52.098;21.006;2022-12-18T04:55:31;42.30;;;13.60;;
68126;SDS011;54931;52.098;21.006;2022-12-18T04:57:58;46.40;;;17.50;;
68126;SDS011;54931;52.098;21.006;2022-12-18T05:00:26;58.40;;;19.30;;
68126;SDS011;54931;52.098;21.006;2022-12-18T05:02:54;59.90;;;20.60;;
68126;SDS011;54931;52.098;21.006;2022-12-18T05:05:21;55.50;;;18.70;;
68126;SDS011;54931;52.098;21.006;2022-12-18T05:07:49;57.60;;;17.30;;
68126;SDS011;54931;52.098;21.006;2022-12-18T05:10:17;54.20;;;17.30;;
68126;SDS011;54931;52.098;21.006;2022-12-18T05:12:45;51.10;;;16.30;;
68126;SDS011;54931;52.098;21.006;2022-12-18T05:15:30;50.10;;;15.10;;
68126;SDS011;54931;52.098;21.006;2022-12-18T05:17:59;56.20;;;19.00;;
68126;SDS011;54931;52.098;21.006;2022-12-18T05:20:28;57.30;;;17.80;;
68126;SDS011;54931;52.098;21.006;2022-12-18T05:22:56;55.00;;;18.40;;
68126;SDS011;54931;52.098;21.006;2022-12-18T05:25:23;50.70;;;14.00;;
68126;SDS011;54931;52.098;21.006;2022-12-18T05:27:52;45.10;;;15.70;;
68126;SDS011;54931;52.098;21.006;2022-12-18T05:30:19;47.70;;;15.90;;
68126;SDS011;54931;52.098;21.006;2022-12-18T05:32:47;59.80;;;18.20;;
68126;SDS011;54931;52.098;21.006;2022-12-18T05:35:15;54.50;;;17.90;;
68126;SDS011;54931;52.098;21.006;2022-12-18T05:37:43;71.60;;;24.00;;
68126;SDS011;54931;52.098;21.006;2022-12-18T05:40:11;66.70;;;21.90;;
68126;SDS011;54931;52.098;21.006;2022-12-18T05:42:39;54.50;;;19.40;;
68126;SDS011;54931;52.098;21.006;2022-12-18T05:45:07;66.00;;;21.80;;
68126;SDS011;54931;52.098;21.006;2022-12-18T05:47:35;64.20;;;20.10;;
68126;SDS011;54931;52.098;21.006;2022-12-18T05:50:03;65.20;;;19.80;;
68126;SDS011;54931;52.098;21.006;2022-12-18T05:52:31;56.80;;;17.70;;
68126;SDS011;54931;52.098;21.006;2022-12-18T05:54:58;54.70;;;16.10;;
68126;SDS011;54931;52.098;21.006;2022-12-18T05:57:26;54.00;;;17.10;;
68126;SDS011;54931;52.098;21.006;2022-12-18T05:59:53;52.70;;;14.90;;
68126;SDS011;54931;52.098;21.006;2022-12-18T06:02:21;48.80;;;16.20;;
68126;SDS011;54931;52.098;21.006;2022-12-18T06:04:49;58.40;;;19.20;;
68126;SDS011;54931;52.098;21.006;2022-12-18T06:07:17;54.50;;;15.70;;
68126;SDS011;54931;52.098;21.006;2022-12-18T06:09:45;49.00;;;16.80;;
68126;SDS011;54931;52.098;21.006;2022-12-18T06:12:12;56.50;;;19.40;;
68126;SDS011;54931;52.098;21.006;2022-12-18T06:14:40;49.00;;;15.50;;
68126;SDS011;54931;52.098;21.006;2022-12-18T06:17:08;49.60;;;15.40;;
68126;SDS011;54931;52.098;21.006;2022-12-18T06:19:36;58.80;;;16.40;;
68126;SDS011;54931;52.098;21.006;2022-12-18T06:22:03;51.10;;;16.50;;
68126;SDS011;54931;52.098;21.006;2022-12-18T06:24:31;60.30;;;17.80;;
68126;SDS011;54931;52.098;21.006;2022-12-18T06:26:58;60.20;;;16.90;;
68126;SDS011;54931;52.098;21.006;2022-12-18T06:29:26;59.40;;;17.40;;
68126;SDS011;54931;52.098;21.006;2022-12-18T06:31:53;56.50;;;16.90;;
68126;SDS011;54931;52.098;21.006;2022-12-18T06:34:22;53.30;;;17.40;;
68126;SDS011;54931;52.098;21.006;2022-12-18T06:36:49;56.80;;;17.80;;
68126;SDS011;54931;52.098;21.006;2022-12-18T06:39:17;56.30;;;17.20;;
68126;SDS011;54931;52.098;21.006;2022-12-18T06:41:44;48.90;;;16.40;;
68126;SDS011;54931;52.098;21.006;2022-12-18T06:44:12;58.20;;;18.40;;
68126;SDS011;54931;52.098;21.006;2022-12-18T06:46:40;51.40;;;16.70;;
68126;SDS011;54931;52.098;21.006;2022-12-18T06:49:07;55.30;;;16.60;;
68126;SDS011;54931;52.098;21.006;2022-12-18T06:51:36;46.90;;;15.90;;
68126;SDS011;54931;52.098;21.006;2022-12-18T06:54:04;59.00;;;17.00;;
68126;SDS011;54931;52.098;21.006;2022-12-18T06:56:32;56.40;;;17.40;;
68126;SDS011;54931;52.098;21.006;2022-12-18T06:59:00;56.50;;;17.40;;
68126;SDS011;54931;52.098;21.006;2022-12-18T07:01:27;57.70;;;16.80;;
68126;SDS011;54931;52.098;21.006;2022-12-18T07:03:56;69.60;;;20.70;;
68126;SDS011;54931;52.098;21.006;2022-12-18T07:06:25;52.30;;;17.50;;
68126;SDS011;54931;52.098;21.006;2022-12-18T07:08:53;53.90;;;18.30;;
68126;SDS011;54931;52.098;21.006;2022-12-18T07:11:22;52.70;;;17.40;;
68126;SDS011;54931;52.098;21.006;2022-12-18T07:13:49;56.50;;;16.20;;
68126;SDS011;54931;52.098;21.006;2022-12-18T07:16:19;57.50;;;19.40;;
68126;SDS011;54931;52.098;21.006;2022-12-18T07:18:48;50.30;;;15.50;;
68126;SDS011;54931;52.098;21.006;2022-12-18T07:21:18;56.30;;;16.30;;
68126;SDS011;54931;52.098;21.006;2022-12-18T07:23:46;47.40;;;15.60;;
68126;SDS011;54931;52.098;21.006;2022-12-18T07:26:17;53.70;;;19.00;;
68126;SDS011;54931;52.098;21.006;2022-12-18T07:28:46;54.20;;;15.50;;
68126;SDS011;54931;52.098;21.006;2022-12-18T07:31:20;58.00;;;16.90;;
68126;SDS011;54931;52.098;21.006;2022-12-18T07:33:49;59.50;;;15.70;;
68126;SDS011;54931;52.098;21.006;2022-12-18T07:36:18;57.90;;;18.10;;
68126;SDS011;54931;52.098;21.006;2022-12-18T07:38:47;50.70;;;16.40;;
68126;SDS011;54931;52.098;21.006;2022-12-18T07:41:16;67.80;;;21.50;;
68126;SDS011;54931;52.098;21.006;2022-12-18T07:43:44;76.60;;;27.60;;
68126;SDS011;54931;52.098;21.006;2022-12-18T07:46:13;73.70;;;25.30;;
68126;SDS011;54931;52.098;21.006;2022-12-18T07:48:42;70.30;;;23.60;;
68126;SDS011;54931;52.098;21.006;2022-12-18T07:51:10;52.80;;;17.80;;
68126;SDS011;54931;52.098;21.006;2022-12-18T07:53:38;61.50;;;20.30;;
68126;SDS011;54931;52.098;21.006;2022-12-18T07:56:11;58.30;;;19.90;;
68126;SDS011;54931;52.098;21.006;2022-12-18T07:58:39;60.10;;;19.30;;
68126;SDS011;54931;52.098;21.006;2022-12-18T08:01:09;55.10;;;19.00;;
68126;SDS011;54931;52.098;21.006;2022-12-18T08:03:40;66.60;;;20.30;;
68126;SDS011;54931;52.098;21.006;2022-12-18T08:06:09;62.30;;;18.90;;
68126;SDS011;54931;52.098;21.006;2022-12-18T08:08:36;60.00;;;18.50;;
68126;SDS011;54931;52.098;21.006;2022-12-18T08:11:04;54.30;;;16.80;;
68126;SDS011;54931;52.098;21.006;2022-12-18T08:13:32;57.10;;;18.00;;
68126;SDS011;54931;52.098;21.006;2022-12-18T08:16:02;54.00;;;17.60;;
68126;SDS011;54931;52.098;21.006;2022-12-18T08:18:36;59.40;;;19.30;;
68126;SDS011;54931;52.098;21.006;2022-12-18T08:21:11;54.20;;;19.10;;
68126;SDS011;54931;52.098;21.006;2022-12-18T08:23:40;66.90;;;19.80;;
68126;SDS011;54931;52.098;21.006;2022-12-18T08:26:09;60.70;;;18.30;;
68126;SDS011;54931;52.098;21.006;2022-12-18T08:28:39;60.80;;;18.70;;
68126;SDS011;54931;52.098;21.006;2022-12-18T08:31:08;52.60;;;16.60;;
68126;SDS011;54931;52.098;21.006;2022-12-18T08:33:37;63.10;;;21.20;;
68126;SDS011;54931;52.098;21.006;2022-12-18T08:36:06;58.80;;;19.30;;
68126;SDS011;54931;52.098;21.006;2022-12-18T08:38:35;67.90;;;22.10;;
68126;SDS011;54931;52.098;21.006;2022-12-18T08:41:05;66.50;;;22.80;;
68126;SDS011;54931;52.098;21.006;2022-12-18T08:43:34;65.10;;;19.20;;
68126;SDS011;54931;52.098;21.006;2022-12-18T08:46:23;55.10;;;19.60;;
68126;SDS011;54931;52.098;21.006;2022-12-18T08:48:53;61.60;;;20.80;;
68126;SDS011;54931;52.098;21.006;2022-12-18T08:51:22;63.80;;;20.60;;
68126;SDS011;54931;52.098;21.006;2022-12-18T08:53:50;59.50;;;18.90;;
68126;SDS011;54931;52.098;21.006;2022-12-18T08:56:17;60.30;;;21.90;;
68126;SDS011;54931;52.098;21.006;2022-12-18T08:58:45;49.10;;;16.90;;
68126;SDS011;54931;52.098;21.006;2022-12-18T09:01:13;65.10;;;21.00;;
68126;SDS011;54931;52.098;21.006;2022-12-18T09:03:40;58.80;;;20.70;;
68126;SDS011;54931;52.098;21.006;2022-12-18T09:06:08;65.50;;;22.50;;
68126;SDS011;54931;52.098;21.006;2022-12-18T09:08:36;66.20;;;22.90;;
68126;SDS011;54931;52.098;21.006;2022-12-18T09:11:04;62.80;;;23.90;;
68126;SDS011;54931;52.098;21.006;2022-12-18T09:13:33;68.30;;;24.00;;
68126;SDS011;54931;52.098;21.006;2022-12-18T09:16:03;56.70;;;18.50;;
68126;SDS011;54931;52.098;21.006;2022-12-18T09:18:30;63.00;;;22.00;;
68126;SDS011;54931;52.098;21.006;2022-12-18T09:20:58;61.00;;;20.10;;
68126;SDS011;54931;52.098;21.006;2022-12-18T09:23:25;64.10;;;21.50;;
68126;SDS011;54931;52.098;21.006;2022-12-18T09:25:58;63.70;;;22.20;;
68126;SDS011;54931;52.098;21.006;2022-12-18T09:28:26;53.40;;;18.50;;
68126;SDS011;54931;52.098;21.006;2022-12-18T09:30:54;67.20;;;24.60;;
68126;SDS011;54931;52.098;21.006;2022-12-18T09:33:22;64.60;;;21.00;;
68126;SDS011;54931;52.098;21.006;2022-12-18T09:35:49;64.70;;;21.30;;
68126;SDS011;54931;52.098;21.006;2022-12-18T09:38:18;61.70;;;21.90;;
68126;SDS011;54931;52.098;21.006;2022-12-18T09:43:19;51.90;;;20.10;;
68126;SDS011;54931;52.098;21.006;2022-12-18T09:45:55;66.30;;;23.30;;
68126;SDS011;54931;52.098;21.006;2022-12-18T09:48:38;63.10;;;21.20;;
68126;SDS011;54931;52.098;21.006;2022-12-18T09:51:25;73.40;;;23.50;;
68126;SDS011;54931;52.098;21.006;2022-12-18T09:54:15;72.90;;;23.60;;
68126;SDS011;54931;52.098;21.006;2022-12-18T09:56:48;67.70;;;21.80;;
68126;SDS011;54931;52.098;21.006;2022-12-18T10:02:19;75.40;;;23.90;;
68126;SDS011;54931;52.098;21.006;2022-12-18T10:10:49;68.10;;;21.40;;
68126;SDS011;54931;52.098;21.006;2022-12-18T10:13:43;84.50;;;24.90;;
68126;SDS011;54931;52.098;21.006;2022-12-18T10:16:43;109.10;;;28.70;;
68126;SDS011;54931;52.098;21.006;2022-12-18T10:26:07;70.40;;;21.50;;
68126;SDS011;54931;52.098;21.006;2022-12-18T10:28:39;87.60;;;26.20;;
68126;SDS011;54931;52.098;21.006;2022-12-18T10:31:15;105.40;;;31.70;;
68126;SDS011;54931;52.098;21.006;2022-12-18T10:33:46;98.90;;;30.40;;
68126;SDS011;54931;52.098;21.006;2022-12-18T10:36:14;75.20;;;22.10;;
68126;SDS011;54931;52.098;21.006;2022-12-18T10:38:42;73.70;;;23.30;;
68126;SDS011;54931;52.098;21.006;2022-12-18T10:44:19;73.90;;;24.10;;
68126;SDS011;54931;52.098;21.006;2022-12-18T10:46:50;61.70;;;22.00;;
68126;SDS011;54931;52.098;21.006;2022-12-18T10:49:31;68.80;;;20.10;;
68126;SDS011;54931;52.098;21.006;2022-12-18T10:52:24;78.10;;;24.30;;
68126;SDS011;54931;52.098;21.006;2022-12-18T10:54:55;66.00;;;19.50;;
68126;SDS011;54931;52.098;21.006;2022-12-18T10:57:39;68.40;;;21.00;;
68126;SDS011;54931;52.098;21.006;2022-12-18T11:00:29;81.50;;;24.20;;
68126;SDS011;54931;52.098;21.006;2022-12-18T11:02:57;68.60;;;23.10;;
68126;SDS011;54931;52.098;21.006;2022-12-18T11:05:33;65.30;;;19.30;;
68126;SDS011;54931;52.098;21.006;2022-12-18T11:08:01;64.70;;;20.20;;
68126;SDS011;54931;52.098;21.006;2022-12-18T11:10:36;62.50;;;18.00;;
68126;SDS011;54931;52.098;21.006;2022-12-18T11:13:18;106.40;;;31.80;;
68126;SDS011;54931;52.098;21.006;2022-12-18T11:15:49;84.50;;;28.20;;
68126;SDS011;54931;52.098;21.006;2022-12-18T11:18:28;80.80;;;23.70;;
68126;SDS011;54931;52.098;21.006;2022-12-18T11:21:08;87.20;;;27.00;;
68126;SDS011;54931;52.098;21.006;2022-12-18T11:23:47;61.00;;;19.10;;
68126;SDS011;54931;52.098;21.006;2022-12-18T11:26:18;64.90;;;21.60;;
68126;SDS011;54931;52.098;21.006;2022-12-18T11:28:51;59.90;;;19.50;;
68126;SDS011;54931;52.098;21.006;2022-12-18T11:31:34;62.20;;;21.10;;
68126;SDS011;54931;52.098;21.006;2022-12-18T11:36:42;78.90;;;26.70;;
68126;SDS011;54931;52.098;21.006;2022-12-18T11:42:17;52.70;;;17.20;;
68126;SDS011;54931;52.098;21.006;2022-12-18T11:50:25;58.70;;;18.80;;
68126;SDS011;54931;52.098;21.006;2022-12-18T11:55:44;56.00;;;18.20;;
68126;SDS011;54931;52.098;21.006;2022-12-18T11:58:27;57.30;;;17.50;;
68126;SDS011;54931;52.098;21.006;2022-12-18T12:13:32;50.90;;;16.50;;
68126;SDS011;54931;52.098;21.006;2022-12-18T12:18:56;49.50;;;18.10;;
68126;SDS011;54931;52.098;21.006;2022-12-18T12:21:55;57.50;;;18.50;;
68126;SDS011;54931;52.098;21.006;2022-12-18T12:30:20;67.00;;;19.30;;
68126;SDS011;54931;52.098;21.006;2022-12-18T12:39:54;73.20;;;23.20;;
68126;SDS011;54931;52.098;21.006;2022-12-18T12:42:33;73.50;;;24.50;;
68126;SDS011;54931;52.098;21.006;2022-12-18T12:46:27;88.00;;;25.40;;
68126;SDS011;54931;52.098;21.006;2022-12-18T12:48:51;91.00;;;26.00;;
68126;SDS011;54931;52.098;21.006;2022-12-18T12:51:28;59.20;;;16.80;;
68126;SDS011;54931;52.098;21.006;2022-12-18T12:54:00;51.70;;;14.10;;
68126;SDS011;54931;52.098;21.006;2022-12-18T12:56:45;62.00;;;19.20;;
68126;SDS011;54931;52.098;21.006;2022-12-18T13:05:40;62.10;;;20.40;;
68126;SDS011;54931;52.098;21.006;2022-12-18T13:08:29;55.20;;;17.50;;
68126;SDS011;54931;52.098;21.006;2022-12-18T13:10:59;50.20;;;16.40;;
68126;SDS011;54931;52.098;21.006;2022-12-18T13:13:51;43.70;;;14.20;;
68126;SDS011;54931;52.098;21.006;2022-12-18T13:16:23;59.90;;;21.30;;
68126;SDS011;54931;52.098;21.006;2022-12-18T13:18:57;70.00;;;24.40;;
68126;SDS011;54931;52.098;21.006;2022-12-18T13:21:35;64.60;;;21.00;;
68126;SDS011;54931;52.098;21.006;2022-12-18T13:24:23;54.20;;;17.20;;
68126;SDS011;54931;52.098;21.006;2022-12-18T13:26:53;57.30;;;16.20;;
68126;SDS011;54931;52.098;21.006;2022-12-18T13:29:47;62.60;;;17.90;;
68126;SDS011;54931;52.098;21.006;2022-12-18T13:32:24;42.00;;;14.40;;
68126;SDS011;54931;52.098;21.006;2022-12-18T13:37:52;43.40;;;14.20;;
68126;SDS011;54931;52.098;21.006;2022-12-18T13:46:00;32.60;;;10.40;;
68126;SDS011;54931;52.098;21.006;2022-12-18T13:48:55;59.30;;;20.50;;
68126;SDS011;54931;52.098;21.006;2022-12-18T13:51:33;68.10;;;23.80;;
68126;SDS011;54931;52.098;21.006;2022-12-18T13:54:30;87.30;;;29.70;;
68126;SDS011;54931;52.098;21.006;2022-12-18T13:57:03;69.20;;;23.40;;
68126;SDS011;54931;52.098;21.006;2022-12-18T14:02:18;82.80;;;25.50;;
68126;SDS011;54931;52.098;21.006;2022-12-18T14:04:50;113.80;;;34.90;;
68126;SDS011;54931;52.098;21.006;2022-12-18T14:07:23;94.70;;;30.80;;
68126;SDS011;54931;52.098;21.006;2022-12-18T14:09:55;62.80;;;19.60;;
68126;SDS011;54931;52.098;21.006;2022-12-18T14:12:26;80.10;;;25.00;;
68126;SDS011;54931;52.098;21.006;2022-12-18T14:15:30;75.40;;;22.90;;
68126;SDS011;54931;52.098;21.006;2022-12-18T14:21:02;83.90;;;23.50;;
68126;SDS011;54931;52.098;21.006;2022-12-18T14:23:35;62.50;;;19.80;;
68126;SDS011;54931;52.098;21.006;2022-12-18T14:26:21;73.30;;;26.40;;
68126;SDS011;54931;52.098;21.006;2022-12-18T14:28:49;78.40;;;24.30;;
68126;SDS011;54931;52.098;21.006;2022-12-18T14:31:21;56.80;;;18.20;;
68126;SDS011;54931;52.098;21.006;2022-12-18T14:33:54;66.50;;;21.20;;
68126;SDS011;54931;52.098;21.006;2022-12-18T14:36:24;65.10;;;18.70;;
68126;SDS011;54931;52.098;21.006;2022-12-18T14:38:55;62.70;;;21.70;;
68126;SDS011;54931;52.098;21.006;2022-12-18T14:41:25;57.20;;;17.60;;
68126;SDS011;54931;52.098;21.006;2022-12-18T14:43:54;60.40;;;19.60;;
68126;SDS011;54931;52.098;21.006;2022-12-18T14:46:37;39.60;;;14.10;;
68126;SDS011;54931;52.098;21.006;2022-12-18T14:49:26;56.60;;;19.10;;
68126;SDS011;54931;52.098;21.006;2022-12-18T14:52:04;32.10;;;9.90;;
68126;SDS011;54931;52.098;21.006;2022-12-18T14:54:35;55.20;;;16.20;;
68126;SDS011;54931;52.098;21.006;2022-12-18T14:59:50;56.10;;;17.80;;
68126;SDS011;54931;52.098;21.006;2022-12-18T15:02:23;34.00;;;9.80;;
68126;SDS011;54931;52.098;21.006;2022-12-18T15:07:43;51.00;;;15.30;;
68126;SDS011;54931;52.098;21.006;2022-12-18T15:10:17;23.50;;;10.00;;
68126;SDS011;54931;52.098;21.006;2022-12-18T15:20:53;22.60;;;8.80;;
68126;SDS011;54931;52.098;21.006;2022-12-18T15:26:09;50.40;;;17.80;;
68126;SDS011;54931;52.098;21.006;2022-12-18T15:31:34;51.10;;;17.80;;
68126;SDS011;54931;52.098;21.006;2022-12-18T15:34:27;43.50;;;15.00;;
68126;SDS011;54931;52.098;21.006;2022-12-18T15:36:54;48.70;;;16.40;;
68126;SDS011;54931;52.098;21.006;2022-12-18T15:39:21;43.90;;;13.50;;
68126;SDS011;54931;52.098;21.006;2022-12-18T15:41:49;67.30;;;24.60;;
68126;SDS011;54931;52.098;21.006;2022-12-18T15:44:36;51.00;;;16.20;;
68126;SDS011;54931;52.098;21.006;2022-12-18T15:47:10;51.90;;;17.60;;
68126;SDS011;54931;52.098;21.006;2022-12-18T15:49:40;42.80;;;13.60;;
68126;SDS011;54931;52.098;21.006;2022-12-18T15:52:12;44.50;;;16.00;;
68126;SDS011;54931;52.098;21.006;2022-12-18T15:54:41;29.40;;;9.80;;
68126;SDS011;54931;52.098;21.006;2022-12-18T15:57:27;37.80;;;12.90;;
68126;SDS011;54931;52.098;21.006;2022-12-18T15:59:56;44.60;;;14.30;;
68126;SDS011;54931;52.098;21.006;2022-12-18T16:02:25;59.60;;;20.10;;
68126;SDS011;54931;52.098;21.006;2022-12-18T16:04:56;54.90;;;19.60;;
68126;SDS011;54931;52.098;21.006;2022-12-18T16:07:23;61.40;;;20.50;;
68126;SDS011;54931;52.098;21.006;2022-12-18T16:09:51;50.80;;;15.30;;
68126;SDS011;54931;52.098;21.006;2022-12-18T16:12:22;50.30;;;16.00;;
68126;SDS011;54931;52.098;21.006;2022-12-18T16:14:51;31.40;;;10.20;;
68126;SDS011;54931;52.098;21.006;2022-12-18T16:17:19;27.60;;;10.50;;
68126;SDS011;54931;52.098;21.006;2022-12-18T16:19:47;49.20;;;16.40;;
68126;SDS011;54931;52.098;21.006;2022-12-18T16:22:23;60.80;;;18.50;;
68126;SDS011;54931;52.098;21.006;2022-12-18T16:24:54;41.50;;;14.60;;
68126;SDS011;54931;52.098;21.006;2022-12-18T16:27:24;31.10;;;12.60;;
68126;SDS011;54931;52.098;21.006;2022-12-18T16:29:52;39.70;;;13.00;;
68126;SDS011;54931;52.098;21.006;2022-12-18T16:32:21;53.00;;;17.80;;
68126;SDS011;54931;52.098;21.006;2022-12-18T16:34:49;48.90;;;15.00;;
68126;SDS011;54931;52.098;21.006;2022-12-18T16:37:18;50.70;;;16.10;;
68126;SDS011;54931;52.098;21.006;2022-12-18T16:39:46;22.40;;;10.30;;
68126;SDS011;54931;52.098;21.006;2022-12-18T16:42:16;30.00;;;10.50;;
68126;SDS011;54931;52.098;21.006;2022-12-18T16:44:47;43.10;;;14.80;;